sensor_id;sensor_type;location;lat;lon;timestamp;temperature;humidity
64937;SHT30;51452;47.698;19.050;2023-09-18T00:02:06;20.86;71.36
64937;SHT30;51452;47.698;19.050;2023-09-18T00:04:32;20.85;71.30
64937;SHT30;51452;47.698;19.050;2023-09-18T00:06:57;20.89;71.33
64937;SHT30;51452;47.698;19.050;2023-09-18T00:09:22;20.87;71.38
64937;SHT30;51452;47.698;19.050;2023-09-18T00:11:48;20.85;71.35
64937;SHT30;51452;47.698;19.050;2023-09-18T00:14:14;20.82;71.40
64937;SHT30;51452;47.698;19.050;2023-09-18T00:16:39;20.82;71.34
64937;SHT30;51452;47.698;19.050;2023-09-18T00:19:05;20.85;71.29
64937;SHT30;51452;47.698;19.050;2023-09-18T00:21:33;20.82;71.50
64937;SHT30;51452;47.698;19.050;2023-09-18T00:23:58;20.82;71.43
64937;SHT30;51452;47.698;19.050;2023-09-18T00:26:25;20.77;71.59
64937;SHT30;51452;47.698;19.050;2023-09-18T00:28:50;20.76;71.63
64937;SHT30;51452;47.698;19.050;2023-09-18T00:31:15;20.71;71.60
64937;SHT30;51452;47.698;19.050;2023-09-18T00:33:41;20.71;71.54
64937;SHT30;51452;47.698;19.050;2023-09-18T00:36:06;20.72;71.64
64937;SHT30;51452;47.698;19.050;2023-09-18T00:38:31;20.69;71.66
64937;SHT30;51452;47.698;19.050;2023-09-18T00:40:57;20.61;71.75
64937;SHT30;51452;47.698;19.050;2023-09-18T00:43:22;20.58;72.00
64937;SHT30;51452;47.698;19.050;2023-09-18T00:45:48;20.58;71.97
64937;SHT30;51452;47.698;19.050;2023-09-18T00:48:15;20.49;72.06
64937;SHT30;51452;47.698;19.050;2023-09-18T00:50:41;20.46;72.18
64937;SHT30;51452;47.698;19.050;2023-09-18T00:53:07;20.44;72.27
64937;SHT30;51452;47.698;19.050;2023-09-18T00:55:36;20.35;72.27
64937;SHT30;51452;47.698;19.050;2023-09-18T00:58:02;20.36;72.39
64937;SHT30;51452;47.698;19.050;2023-09-18T01:00:28;20.36;72.41
64937;SHT30;51452;47.698;19.050;2023-09-18T01:02:53;20.36;72.44
64937;SHT30;51452;47.698;19.050;2023-09-18T01:05:19;20.38;72.22
64937;SHT30;51452;47.698;19.050;2023-09-18T01:07:45;20.36;72.40
64937;SHT30;51452;47.698;19.050;2023-09-18T01:10:11;20.34;72.39
64937;SHT30;51452;47.698;19.050;2023-09-18T01:12:44;20.36;72.37
64937;SHT30;51452;47.698;19.050;2023-09-18T01:17:40;20.32;72.36
64937;SHT30;51452;47.698;19.050;2023-09-18T01:20:09;20.28;72.49
64937;SHT30;51452;47.698;19.050;2023-09-18T01:22:34;20.24;72.62
64937;SHT30;51452;47.698;19.050;2023-09-18T01:25:00;20.24;72.49
64937;SHT30;51452;47.698;19.050;2023-09-18T01:27:25;20.22;72.65
64937;SHT30;51452;47.698;19.050;2023-09-18T01:29:51;20.14;72.81
64937;SHT30;51452;47.698;19.050;2023-09-18T01:32:18;20.10;72.75
64937;SHT30;51452;47.698;19.050;2023-09-18T01:34:48;20.08;72.96
64937;SHT30;51452;47.698;19.050;2023-09-18T01:37:20;20.10;72.91
64937;SHT30;51452;47.698;19.050;2023-09-18T01:39:48;20.05;72.85
64937;SHT30;51452;47.698;19.050;2023-09-18T01:42:14;20.05;72.98
64937;SHT30;51452;47.698;19.050;2023-09-18T01:44:40;20.04;72.96
64937;SHT30;51452;47.698;19.050;2023-09-18T01:47:08;20.04;72.86
64937;SHT30;51452;47.698;19.050;2023-09-18T01:49:37;20.03;72.94
64937;SHT30;51452;47.698;19.050;2023-09-18T01:52:05;20.03;72.84
64937;SHT30;51452;47.698;19.050;2023-09-18T01:54:31;19.97;73.00
64937;SHT30;51452;47.698;19.050;2023-09-18T01:56:57;20.07;73.00
64937;SHT30;51452;47.698;19.050;2023-09-18T01:59:23;20.01;73.18
64937;SHT30;51452;47.698;19.050;2023-09-18T02:01:49;20.03;72.96
64937;SHT30;51452;47.698;19.050;2023-09-18T02:04:15;19.96;72.98
64937;SHT30;51452;47.698;19.050;2023-09-18T02:06:40;20.01;72.80
64937;SHT30;51452;47.698;19.050;2023-09-18T02:09:06;20.00;72.95
64937;SHT30;51452;47.698;19.050;2023-09-18T02:11:39;19.97;72.90
64937;SHT30;51452;47.698;19.050;2023-09-18T02:14:05;19.87;72.90
64937;SHT30;51452;47.698;19.050;2023-09-18T02:16:35;19.88;73.01
64937;SHT30;51452;47.698;19.050;2023-09-18T02:19:01;19.87;73.00
64937;SHT30;51452;47.698;19.050;2023-09-18T02:21:26;19.78;73.10
64937;SHT30;51452;47.698;19.050;2023-09-18T02:23:52;19.78;73.19
64937;SHT30;51452;47.698;19.050;2023-09-18T02:26:22;19.77;73.20
64937;SHT30;51452;47.698;19.050;2023-09-18T02:28:48;19.84;72.95
64937;SHT30;51452;47.698;19.050;2023-09-18T02:31:14;19.77;73.14
64937;SHT30;51452;47.698;19.050;2023-09-18T02:33:40;19.76;73.15
64937;SHT30;51452;47.698;19.050;2023-09-18T02:36:06;19.73;73.11
64937;SHT30;51452;47.698;19.050;2023-09-18T02:38:32;19.76;73.03
64937;SHT30;51452;47.698;19.050;2023-09-18T02:40:58;19.73;73.21
64937;SHT30;51452;47.698;19.050;2023-09-18T02:43:24;19.71;73.20
64937;SHT30;51452;47.698;19.050;2023-09-18T02:45:50;19.67;73.42
64937;SHT30;51452;47.698;19.050;2023-09-18T02:48:16;19.63;73.42
64937;SHT30;51452;47.698;19.050;2023-09-18T02:50:41;19.55;73.54
64937;SHT30;51452;47.698;19.050;2023-09-18T02:53:09;19.57;73.62
64937;SHT30;51452;47.698;19.050;2023-09-18T02:55:36;19.56;74.22
64937;SHT30;51452;47.698;19.050;2023-09-18T02:58:02;19.57;74.42
64937;SHT30;51452;47.698;19.050;2023-09-18T03:00:28;19.59;74.46
64937;SHT30;51452;47.698;19.050;2023-09-18T03:02:53;19.55;74.40
64937;SHT30;51452;47.698;19.050;2023-09-18T03:05:19;19.50;74.27
64937;SHT30;51452;47.698;19.050;2023-09-18T03:07:44;19.52;74.20
64937;SHT30;51452;47.698;19.050;2023-09-18T03:10:10;19.46;74.30
64937;SHT30;51452;47.698;19.050;2023-09-18T03:12:39;19.45;74.33
64937;SHT30;51452;47.698;19.050;2023-09-18T03:15:05;19.45;74.31
64937;SHT30;51452;47.698;19.050;2023-09-18T03:17:31;19.45;74.31
64937;SHT30;51452;47.698;19.050;2023-09-18T03:19:57;19.42;74.38
64937;SHT30;51452;47.698;19.050;2023-09-18T03:22:22;19.36;74.46
64937;SHT30;51452;47.698;19.050;2023-09-18T03:24:47;19.32;74.42
64937;SHT30;51452;47.698;19.050;2023-09-18T03:27:13;19.30;74.54
64937;SHT30;51452;47.698;19.050;2023-09-18T03:29:38;19.36;74.41
64937;SHT30;51452;47.698;19.050;2023-09-18T03:32:04;19.32;74.49
64937;SHT30;51452;47.698;19.050;2023-09-18T03:34:29;19.33;74.50
64937;SHT30;51452;47.698;19.050;2023-09-18T03:36:55;19.37;74.30
64937;SHT30;51452;47.698;19.050;2023-09-18T03:39:21;19.36;74.41
64937;SHT30;51452;47.698;19.050;2023-09-18T03:41:46;19.40;74.24
64937;SHT30;51452;47.698;19.050;2023-09-18T03:44:11;19.40;74.25
64937;SHT30;51452;47.698;19.050;2023-09-18T03:46:37;19.40;74.27
64937;SHT30;51452;47.698;19.050;2023-09-18T03:49:02;19.40;74.09
64937;SHT30;51452;47.698;19.050;2023-09-18T03:51:28;19.40;73.98
64937;SHT30;51452;47.698;19.050;2023-09-18T03:53:55;19.46;74.05
64937;SHT30;51452;47.698;19.050;2023-09-18T03:56:21;19.46;73.82
64937;SHT30;51452;47.698;19.050;2023-09-18T03:58:47;19.45;73.89
64937;SHT30;51452;47.698;19.050;2023-09-18T04:01:17;19.47;73.78
64937;SHT30;51452;47.698;19.050;2023-09-18T04:03:43;19.43;74.00
64937;SHT30;51452;47.698;19.050;2023-09-18T04:06:08;19.45;74.01
64937;SHT30;51452;47.698;19.050;2023-09-18T04:08:33;19.40;74.00
64937;SHT30;51452;47.698;19.050;2023-09-18T04:10:59;19.36;73.99
64937;SHT30;51452;47.698;19.050;2023-09-18T04:13:24;19.37;73.95
64937;SHT30;51452;47.698;19.050;2023-09-18T04:15:50;19.33;74.12
64937;SHT30;51452;47.698;19.050;2023-09-18T04:18:17;19.27;74.17
64937;SHT30;51452;47.698;19.050;2023-09-18T04:20:42;19.25;74.29
64937;SHT30;51452;47.698;19.050;2023-09-18T04:25:47;19.19;74.20
64937;SHT30;51452;47.698;19.050;2023-09-18T04:28:13;19.15;74.36
64937;SHT30;51452;47.698;19.050;2023-09-18T04:30:39;19.16;74.37
64937;SHT30;51452;47.698;19.050;2023-09-18T04:33:04;19.18;74.27
64937;SHT30;51452;47.698;19.050;2023-09-18T04:35:30;19.22;74.22
64937;SHT30;51452;47.698;19.050;2023-09-18T04:37:58;19.22;74.25
64937;SHT30;51452;47.698;19.050;2023-09-18T04:40:23;19.20;74.14
64937;SHT30;51452;47.698;19.050;2023-09-18T04:42:57;19.22;74.22
64937;SHT30;51452;47.698;19.050;2023-09-18T04:45:22;19.25;74.04
64937;SHT30;51452;47.698;19.050;2023-09-18T04:47:48;19.25;74.24
64937;SHT30;51452;47.698;19.050;2023-09-18T04:50:14;19.27;74.09
64937;SHT30;51452;47.698;19.050;2023-09-18T04:52:39;19.25;73.89
64937;SHT30;51452;47.698;19.050;2023-09-18T04:55:06;19.33;73.92
64937;SHT30;51452;47.698;19.050;2023-09-18T04:57:31;19.33;73.80
64937;SHT30;51452;47.698;19.050;2023-09-18T04:59:57;19.36;73.78
64937;SHT30;51452;47.698;19.050;2023-09-18T05:02:22;19.39;74.03
64937;SHT30;51452;47.698;19.050;2023-09-18T05:04:47;19.33;73.81
64937;SHT30;51452;47.698;19.050;2023-09-18T05:07:13;19.39;73.83
64937;SHT30;51452;47.698;19.050;2023-09-18T05:09:39;19.43;73.70
64937;SHT30;51452;47.698;19.050;2023-09-18T05:12:06;19.35;73.99
64937;SHT30;51452;47.698;19.050;2023-09-18T05:14:34;19.36;73.71
64937;SHT30;51452;47.698;19.050;2023-09-18T05:16:59;19.40;73.62
64937;SHT30;51452;47.698;19.050;2023-09-18T05:19:25;19.45;73.62
64937;SHT30;51452;47.698;19.050;2023-09-18T05:21:50;19.52;73.74
64937;SHT30;51452;47.698;19.050;2023-09-18T05:24:16;19.57;73.51
64937;SHT30;51452;47.698;19.050;2023-09-18T05:26:41;19.49;73.48
64937;SHT30;51452;47.698;19.050;2023-09-18T05:29:06;19.57;73.18
64937;SHT30;51452;47.698;19.050;2023-09-18T05:31:32;19.59;73.26
64937;SHT30;51452;47.698;19.050;2023-09-18T05:33:57;19.65;73.40
64937;SHT30;51452;47.698;19.050;2023-09-18T05:36:23;19.74;73.32
64937;SHT30;51452;47.698;19.050;2023-09-18T05:38:49;19.77;73.03
64937;SHT30;51452;47.698;19.050;2023-09-18T05:41:14;19.80;72.80
64937;SHT30;51452;47.698;19.050;2023-09-18T05:43:40;19.87;72.73
64937;SHT30;51452;47.698;19.050;2023-09-18T05:46:06;19.88;72.63
64937;SHT30;51452;47.698;19.050;2023-09-18T05:48:31;19.91;72.64
64937;SHT30;51452;47.698;19.050;2023-09-18T05:50:57;19.96;72.16
64937;SHT30;51452;47.698;19.050;2023-09-18T05:53:22;20.04;71.89
64937;SHT30;51452;47.698;19.050;2023-09-18T05:55:47;20.05;72.61
64937;SHT30;51452;47.698;19.050;2023-09-18T05:58:13;20.07;71.83
64937;SHT30;51452;47.698;19.050;2023-09-18T06:00:39;20.13;71.44
64937;SHT30;51452;47.698;19.050;2023-09-18T06:03:04;20.21;71.22
64937;SHT30;51452;47.698;19.050;2023-09-18T06:05:31;20.24;71.35
64937;SHT30;51452;47.698;19.050;2023-09-18T06:07:57;20.27;71.31
64937;SHT30;51452;47.698;19.050;2023-09-18T06:10:23;20.29;70.79
64937;SHT30;51452;47.698;19.050;2023-09-18T06:12:49;20.31;71.04
64937;SHT30;51452;47.698;19.050;2023-09-18T06:15:14;20.32;71.37
64937;SHT30;51452;47.698;19.050;2023-09-18T06:17:42;20.42;70.94
64937;SHT30;51452;47.698;19.050;2023-09-18T06:20:08;20.42;70.46
64937;SHT30;51452;47.698;19.050;2023-09-18T06:22:41;20.53;69.97
64937;SHT30;51452;47.698;19.050;2023-09-18T06:25:08;20.61;70.05
64937;SHT30;51452;47.698;19.050;2023-09-18T06:27:35;20.68;69.85
64937;SHT30;51452;47.698;19.050;2023-09-18T06:30:02;20.77;69.48
64937;SHT30;51452;47.698;19.050;2023-09-18T06:32:28;20.85;69.26
64937;SHT30;51452;47.698;19.050;2023-09-18T06:34:54;20.89;69.77
64937;SHT30;51452;47.698;19.050;2023-09-18T06:37:19;20.92;68.88
64937;SHT30;51452;47.698;19.050;2023-09-18T06:39:45;20.96;68.67
64937;SHT30;51452;47.698;19.050;2023-09-18T06:42:10;20.99;68.67
64937;SHT30;51452;47.698;19.050;2023-09-18T06:44:36;21.03;68.78
64937;SHT30;51452;47.698;19.050;2023-09-18T06:47:02;21.17;68.50
64937;SHT30;51452;47.698;19.050;2023-09-18T06:49:28;21.19;68.30
64937;SHT30;51452;47.698;19.050;2023-09-18T06:51:53;21.23;67.94
64937;SHT30;51452;47.698;19.050;2023-09-18T06:54:18;21.22;68.09
64937;SHT30;51452;47.698;19.050;2023-09-18T06:56:44;21.23;68.14
64937;SHT30;51452;47.698;19.050;2023-09-18T06:59:10;21.23;67.95
64937;SHT30;51452;47.698;19.050;2023-09-18T07:01:36;21.26;68.65
64937;SHT30;51452;47.698;19.050;2023-09-18T07:04:01;21.28;67.84
64937;SHT30;51452;47.698;19.050;2023-09-18T07:06:29;21.19;67.93
64937;SHT30;51452;47.698;19.050;2023-09-18T07:08:56;21.22;68.19
64937;SHT30;51452;47.698;19.050;2023-09-18T07:11:21;21.26;68.18
64937;SHT30;51452;47.698;19.050;2023-09-18T07:13:47;21.20;68.66
64937;SHT30;51452;47.698;19.050;2023-09-18T07:16:12;21.33;68.51
64937;SHT30;51452;47.698;19.050;2023-09-18T07:18:38;21.43;68.41
64937;SHT30;51452;47.698;19.050;2023-09-18T07:21:04;21.47;67.91
64937;SHT30;51452;47.698;19.050;2023-09-18T07:23:29;21.55;68.19
64937;SHT30;51452;47.698;19.050;2023-09-18T07:25:55;21.58;67.50
64937;SHT30;51452;47.698;19.050;2023-09-18T07:28:20;21.59;67.75
64937;SHT30;51452;47.698;19.050;2023-09-18T07:30:46;21.68;67.63
64937;SHT30;51452;47.698;19.050;2023-09-18T07:33:13;21.79;67.23
64937;SHT30;51452;47.698;19.050;2023-09-18T07:35:41;21.84;67.54
64937;SHT30;51452;47.698;19.050;2023-09-18T07:38:06;21.86;68.36
64937;SHT30;51452;47.698;19.050;2023-09-18T07:40:33;21.94;68.05
64937;SHT30;51452;47.698;19.050;2023-09-18T07:42:58;21.99;67.69
64937;SHT30;51452;47.698;19.050;2023-09-18T07:45:23;22.09;67.12
64937;SHT30;51452;47.698;19.050;2023-09-18T07:47:49;22.13;66.62
64937;SHT30;51452;47.698;19.050;2023-09-18T07:50:15;22.22;66.53
64937;SHT30;51452;47.698;19.050;2023-09-18T07:52:40;22.23;66.81
64937;SHT30;51452;47.698;19.050;2023-09-18T07:55:06;22.36;66.15
64937;SHT30;51452;47.698;19.050;2023-09-18T07:57:31;22.35;65.98
64937;SHT30;51452;47.698;19.050;2023-09-18T07:59:59;22.39;65.58
64937;SHT30;51452;47.698;19.050;2023-09-18T08:02:31;22.49;66.19
64937;SHT30;51452;47.698;19.050;2023-09-18T08:04:56;22.49;65.79
64937;SHT30;51452;47.698;19.050;2023-09-18T08:07:22;22.50;66.53
64937;SHT30;51452;47.698;19.050;2023-09-18T08:09:47;22.55;65.48
64937;SHT30;51452;47.698;19.050;2023-09-18T08:12:14;22.60;65.17
64937;SHT30;51452;47.698;19.050;2023-09-18T08:14:39;22.57;65.53
64937;SHT30;51452;47.698;19.050;2023-09-18T08:17:05;22.66;65.15
64937;SHT30;51452;47.698;19.050;2023-09-18T08:19:30;22.60;65.54
64937;SHT30;51452;47.698;19.050;2023-09-18T08:21:58;22.70;64.46
64937;SHT30;51452;47.698;19.050;2023-09-18T08:24:25;22.74;65.16
64937;SHT30;51452;47.698;19.050;2023-09-18T08:26:50;22.78;65.37
64937;SHT30;51452;47.698;19.050;2023-09-18T08:29:15;22.90;64.37
64937;SHT30;51452;47.698;19.050;2023-09-18T08:31:41;22.88;64.03
64937;SHT30;51452;47.698;19.050;2023-09-18T08:34:07;22.87;64.24
64937;SHT30;51452;47.698;19.050;2023-09-18T08:36:32;23.00;63.87
64937;SHT30;51452;47.698;19.050;2023-09-18T08:38:58;23.05;63.74
64937;SHT30;51452;47.698;19.050;2023-09-18T08:41:24;23.05;63.75
64937;SHT30;51452;47.698;19.050;2023-09-18T08:43:58;23.17;63.92
64937;SHT30;51452;47.698;19.050;2023-09-18T08:46:25;23.28;63.55
64937;SHT30;51452;47.698;19.050;2023-09-18T08:48:51;23.35;63.75
64937;SHT30;51452;47.698;19.050;2023-09-18T08:51:18;23.42;62.78
64937;SHT30;51452;47.698;19.050;2023-09-18T08:53:43;23.46;62.70
64937;SHT30;51452;47.698;19.050;2023-09-18T08:56:10;23.54;63.37
64937;SHT30;51452;47.698;19.050;2023-09-18T08:58:39;23.63;62.28
64937;SHT30;51452;47.698;19.050;2023-09-18T09:01:10;23.66;62.13
64937;SHT30;51452;47.698;19.050;2023-09-18T09:03:40;23.67;62.02
64937;SHT30;51452;47.698;19.050;2023-09-18T09:06:07;23.79;62.45
64937;SHT30;51452;47.698;19.050;2023-09-18T09:08:34;23.82;62.11
64937;SHT30;51452;47.698;19.050;2023-09-18T09:10:59;23.82;62.06
64937;SHT30;51452;47.698;19.050;2023-09-18T09:13:25;23.80;61.92
64937;SHT30;51452;47.698;19.050;2023-09-18T09:15:56;23.89;61.70
64937;SHT30;51452;47.698;19.050;2023-09-18T09:18:27;24.00;61.81
64937;SHT30;51452;47.698;19.050;2023-09-18T09:20:57;24.13;61.61
64937;SHT30;51452;47.698;19.050;2023-09-18T09:23:26;24.10;61.16
64937;SHT30;51452;47.698;19.050;2023-09-18T09:25:52;24.20;60.53
64937;SHT30;51452;47.698;19.050;2023-09-18T09:28:31;24.26;60.46
64937;SHT30;51452;47.698;19.050;2023-09-18T09:31:03;24.30;60.84
64937;SHT30;51452;47.698;19.050;2023-09-18T09:33:29;24.40;59.92
64937;SHT30;51452;47.698;19.050;2023-09-18T09:35:55;24.44;60.35
64937;SHT30;51452;47.698;19.050;2023-09-18T09:38:28;24.48;59.33
64937;SHT30;51452;47.698;19.050;2023-09-18T09:40:54;24.57;59.27
64937;SHT30;51452;47.698;19.050;2023-09-18T09:43:19;24.61;59.19
64937;SHT30;51452;47.698;19.050;2023-09-18T09:45:46;24.68;59.49
64937;SHT30;51452;47.698;19.050;2023-09-18T09:48:11;24.63;59.85
64937;SHT30;51452;47.698;19.050;2023-09-18T09:50:46;24.79;59.70
64937;SHT30;51452;47.698;19.050;2023-09-18T09:53:15;24.76;59.68
64937;SHT30;51452;47.698;19.050;2023-09-18T09:55:41;24.86;58.52
64937;SHT30;51452;47.698;19.050;2023-09-18T09:58:08;24.89;58.57
64937;SHT30;51452;47.698;19.050;2023-09-18T10:00:42;24.92;58.98
64937;SHT30;51452;47.698;19.050;2023-09-18T10:03:10;24.94;58.70
64937;SHT30;51452;47.698;19.050;2023-09-18T10:05:38;24.96;58.65
64937;SHT30;51452;47.698;19.050;2023-09-18T10:08:08;25.01;59.10
64937;SHT30;51452;47.698;19.050;2023-09-18T10:10:38;25.11;58.48
64937;SHT30;51452;47.698;19.050;2023-09-18T10:13:10;25.19;58.35
64937;SHT30;51452;47.698;19.050;2023-09-18T10:15:38;25.12;58.34
64937;SHT30;51452;47.698;19.050;2023-09-18T10:18:16;25.16;57.99
64937;SHT30;51452;47.698;19.050;2023-09-18T10:20:44;25.26;57.97
64937;SHT30;51452;47.698;19.050;2023-09-18T10:23:17;25.36;57.60
64937;SHT30;51452;47.698;19.050;2023-09-18T10:25:50;25.45;57.61
64937;SHT30;51452;47.698;19.050;2023-09-18T10:28:17;25.56;57.48
64937;SHT30;51452;47.698;19.050;2023-09-18T10:30:44;25.62;57.38
64937;SHT30;51452;47.698;19.050;2023-09-18T10:33:09;25.69;56.80
64937;SHT30;51452;47.698;19.050;2023-09-18T10:35:35;25.62;56.58
64937;SHT30;51452;47.698;19.050;2023-09-18T10:38:02;25.76;56.17
64937;SHT30;51452;47.698;19.050;2023-09-18T10:40:28;25.77;55.80
64937;SHT30;51452;47.698;19.050;2023-09-18T10:42:57;25.85;55.61
64937;SHT30;51452;47.698;19.050;2023-09-18T10:45:23;25.85;55.32
64937;SHT30;51452;47.698;19.050;2023-09-18T10:47:49;25.91;55.96
64937;SHT30;51452;47.698;19.050;2023-09-18T10:50:25;25.93;56.32
64937;SHT30;51452;47.698;19.050;2023-09-18T10:52:51;26.00;55.64
64937;SHT30;51452;47.698;19.050;2023-09-18T10:55:17;26.00;55.94
64937;SHT30;51452;47.698;19.050;2023-09-18T10:57:53;26.04;55.77
64937;SHT30;51452;47.698;19.050;2023-09-18T11:00:21;26.05;55.23
64937;SHT30;51452;47.698;19.050;2023-09-18T11:03:08;26.07;54.83
64937;SHT30;51452;47.698;19.050;2023-09-18T11:05:35;26.09;54.80
64937;SHT30;51452;47.698;19.050;2023-09-18T11:08:35;26.15;55.08
64937;SHT30;51452;47.698;19.050;2023-09-18T11:11:06;26.24;55.58
64937;SHT30;51452;47.698;19.050;2023-09-18T11:13:36;26.32;55.03
64937;SHT30;51452;47.698;19.050;2023-09-18T11:21:29;26.39;54.38
64937;SHT30;51452;47.698;19.050;2023-09-18T11:24:19;26.39;55.02
64937;SHT30;51452;47.698;19.050;2023-09-18T11:26:46;26.42;54.59
64937;SHT30;51452;47.698;19.050;2023-09-18T11:29:18;26.48;53.93
64937;SHT30;51452;47.698;19.050;2023-09-18T11:31:54;26.59;54.30
64937;SHT30;51452;47.698;19.050;2023-09-18T11:34:25;26.75;54.06
64937;SHT30;51452;47.698;19.050;2023-09-18T11:36:57;26.73;53.83
64937;SHT30;51452;47.698;19.050;2023-09-18T11:42:11;26.73;53.45
64937;SHT30;51452;47.698;19.050;2023-09-18T11:44:37;26.60;54.05
64937;SHT30;51452;47.698;19.050;2023-09-18T11:47:08;26.57;53.98
64937;SHT30;51452;47.698;19.050;2023-09-18T11:49:38;26.45;53.63
64937;SHT30;51452;47.698;19.050;2023-09-18T11:52:07;26.39;54.03
64937;SHT30;51452;47.698;19.050;2023-09-18T11:54:32;26.42;54.26
64937;SHT30;51452;47.698;19.050;2023-09-18T11:57:03;26.59;54.41
64937;SHT30;51452;47.698;19.050;2023-09-18T11:59:34;26.59;54.17
64937;SHT30;51452;47.698;19.050;2023-09-18T12:02:01;26.57;53.49
64937;SHT30;51452;47.698;19.050;2023-09-18T12:04:31;26.55;53.46
64937;SHT30;51452;47.698;19.050;2023-09-18T12:06:58;26.52;54.08
64937;SHT30;51452;47.698;19.050;2023-09-18T12:09:26;26.57;53.61
64937;SHT30;51452;47.698;19.050;2023-09-18T12:11:52;26.57;54.26
64937;SHT30;51452;47.698;19.050;2023-09-18T12:14:20;26.68;53.54
64937;SHT30;51452;47.698;19.050;2023-09-18T12:16:45;26.76;55.19
64937;SHT30;51452;47.698;19.050;2023-09-18T12:19:16;26.79;53.52
64937;SHT30;51452;47.698;19.050;2023-09-18T12:21:46;26.95;53.12
64937;SHT30;51452;47.698;19.050;2023-09-18T12:24:21;27.11;54.15
64937;SHT30;51452;47.698;19.050;2023-09-18T12:26:47;27.16;52.96
64937;SHT30;51452;47.698;19.050;2023-09-18T12:29:12;27.06;52.79
64937;SHT30;51452;47.698;19.050;2023-09-18T12:31:38;26.99;53.01
64937;SHT30;51452;47.698;19.050;2023-09-18T12:34:04;26.99;52.62
64937;SHT30;51452;47.698;19.050;2023-09-18T12:36:32;27.06;52.67
64937;SHT30;51452;47.698;19.050;2023-09-18T12:38:59;26.90;53.03
64937;SHT30;51452;47.698;19.050;2023-09-18T12:41:26;26.87;52.93
64937;SHT30;51452;47.698;19.050;2023-09-18T12:43:52;26.86;52.13
64937;SHT30;51452;47.698;19.050;2023-09-18T12:46:19;26.82;52.24
64937;SHT30;51452;47.698;19.050;2023-09-18T12:48:46;26.85;52.06
64937;SHT30;51452;47.698;19.050;2023-09-18T12:51:12;26.93;52.51
64937;SHT30;51452;47.698;19.050;2023-09-18T12:53:39;27.04;52.42
64937;SHT30;51452;47.698;19.050;2023-09-18T12:56:14;27.18;52.17
64937;SHT30;51452;47.698;19.050;2023-09-18T12:58:41;27.24;51.75
64937;SHT30;51452;47.698;19.050;2023-09-18T13:01:08;27.35;51.09
64937;SHT30;51452;47.698;19.050;2023-09-18T13:03:45;27.33;50.88
64937;SHT30;51452;47.698;19.050;2023-09-18T13:06:18;27.40;50.06
64937;SHT30;51452;47.698;19.050;2023-09-18T13:08:45;27.34;49.89
64937;SHT30;51452;47.698;19.050;2023-09-18T13:11:10;27.27;49.84
64937;SHT30;51452;47.698;19.050;2023-09-18T13:13:37;27.27;50.10
64937;SHT30;51452;47.698;19.050;2023-09-18T13:16:07;27.10;50.88
64937;SHT30;51452;47.698;19.050;2023-09-18T13:18:34;27.13;51.21
64937;SHT30;51452;47.698;19.050;2023-09-18T13:21:00;27.27;51.73
64937;SHT30;51452;47.698;19.050;2023-09-18T13:23:31;27.26;50.64
64937;SHT30;51452;47.698;19.050;2023-09-18T13:26:02;27.38;50.63
64937;SHT30;51452;47.698;19.050;2023-09-18T13:28:28;27.40;50.88
64937;SHT30;51452;47.698;19.050;2023-09-18T13:30:56;27.48;50.14
64937;SHT30;51452;47.698;19.050;2023-09-18T13:33:22;27.51;49.87
64937;SHT30;51452;47.698;19.050;2023-09-18T13:35:49;27.54;49.39
64937;SHT30;51452;47.698;19.050;2023-09-18T13:38:14;27.48;49.40
64937;SHT30;51452;47.698;19.050;2023-09-18T13:40:46;27.38;49.21
64937;SHT30;51452;47.698;19.050;2023-09-18T13:43:13;27.38;49.40
64937;SHT30;51452;47.698;19.050;2023-09-18T13:45:44;27.23;48.98
64937;SHT30;51452;47.698;19.050;2023-09-18T13:48:09;27.26;48.87
64937;SHT30;51452;47.698;19.050;2023-09-18T13:50:36;27.23;49.00
64937;SHT30;51452;47.698;19.050;2023-09-18T13:53:02;27.33;49.53
64937;SHT30;51452;47.698;19.050;2023-09-18T13:55:29;27.40;48.73
64937;SHT30;51452;47.698;19.050;2023-09-18T13:57:54;27.58;48.67
64937;SHT30;51452;47.698;19.050;2023-09-18T14:00:20;27.64;49.15
64937;SHT30;51452;47.698;19.050;2023-09-18T14:02:46;27.64;48.36
64937;SHT30;51452;47.698;19.050;2023-09-18T14:05:11;27.50;48.47
64937;SHT30;51452;47.698;19.050;2023-09-18T14:07:37;27.47;48.86
64937;SHT30;51452;47.698;19.050;2023-09-18T14:10:10;27.40;49.14
64937;SHT30;51452;47.698;19.050;2023-09-18T14:12:36;27.40;48.99
64937;SHT30;51452;47.698;19.050;2023-09-18T14:15:04;27.22;49.29
64937;SHT30;51452;47.698;19.050;2023-09-18T14:17:30;27.24;48.93
64937;SHT30;51452;47.698;19.050;2023-09-18T14:19:55;27.17;49.56
64937;SHT30;51452;47.698;19.050;2023-09-18T14:22:21;27.24;49.46
64937;SHT30;51452;47.698;19.050;2023-09-18T14:24:46;27.13;49.72
64937;SHT30;51452;47.698;19.050;2023-09-18T14:27:13;27.06;50.16
64937;SHT30;51452;47.698;19.050;2023-09-18T14:29:38;27.04;50.30
64937;SHT30;51452;47.698;19.050;2023-09-18T14:32:04;26.93;49.82
64937;SHT30;51452;47.698;19.050;2023-09-18T14:34:30;26.92;50.18
64937;SHT30;51452;47.698;19.050;2023-09-18T14:36:57;26.92;51.12
64937;SHT30;51452;47.698;19.050;2023-09-18T14:39:22;26.93;50.23
64937;SHT30;51452;47.698;19.050;2023-09-18T14:41:48;26.82;50.31
64937;SHT30;51452;47.698;19.050;2023-09-18T14:44:14;26.79;50.20
64937;SHT30;51452;47.698;19.050;2023-09-18T14:46:39;26.79;50.31
64937;SHT30;51452;47.698;19.050;2023-09-18T14:49:05;26.79;51.42
64937;SHT30;51452;47.698;19.050;2023-09-18T14:51:33;26.76;50.67
64937;SHT30;51452;47.698;19.050;2023-09-18T14:53:59;26.78;50.76
64937;SHT30;51452;47.698;19.050;2023-09-18T14:56:25;26.79;50.46
64937;SHT30;51452;47.698;19.050;2023-09-18T14:58:51;26.69;50.83
64937;SHT30;51452;47.698;19.050;2023-09-18T15:01:21;26.78;50.35
64937;SHT30;51452;47.698;19.050;2023-09-18T15:03:47;26.79;51.44
64937;SHT30;51452;47.698;19.050;2023-09-18T15:06:15;26.76;50.82
64937;SHT30;51452;47.698;19.050;2023-09-18T15:08:41;26.76;50.59
64937;SHT30;51452;47.698;19.050;2023-09-18T15:11:06;26.78;50.62
64937;SHT30;51452;47.698;19.050;2023-09-18T15:13:33;26.76;50.60
64937;SHT30;51452;47.698;19.050;2023-09-18T15:16:03;26.75;50.46
64937;SHT30;51452;47.698;19.050;2023-09-18T15:18:29;26.76;50.44
64937;SHT30;51452;47.698;19.050;2023-09-18T15:20:54;26.79;50.31
64937;SHT30;51452;47.698;19.050;2023-09-18T15:23:21;26.80;50.25
64937;SHT30;51452;47.698;19.050;2023-09-18T15:25:51;26.76;49.97
64937;SHT30;51452;47.698;19.050;2023-09-18T15:28:19;26.73;50.11